TimeEDT,TemperatureF,Dew PointF,Humidity,Sea Level PressureIn,VisibilityMPH,Wind Direction,Wind SpeedMPH,Gust SpeedMPH,PrecipitationIn,Events,Conditions,WindDirDegrees,DateUTC
12:53 AM,73.0,68.0,84,29.96,7.0,SW,4.6,-,N/A,,Clear,230,2013-08-29 04:53:00
1:53 AM,73.0,66.9,81,29.96,7.0,SSW,4.6,-,N/A,,Clear,210,2013-08-29 05:53:00
2:53 AM,71.1,66.9,87,29.95,6.0,SSW,3.5,-,N/A,,Clear,200,2013-08-29 06:53:00
3:53 AM,71.1,66.9,87,29.95,6.0,Calm,Calm,-,N/A,,Clear,0,2013-08-29 07:53:00
4:53 AM,70.0,66.9,90,29.95,6.0,Calm,Calm,-,N/A,,Clear,0,2013-08-29 08:53:00
5:53 AM,70.0,66.9,90,29.94,6.0,South,3.5,-,N/A,,Clear,190,2013-08-29 09:53:00
6:42 AM,69.8,66.2,88,29.95,5.0,Calm,Calm,-,N/A,,Partly Cloudy,0,2013-08-29 10:42:00
6:53 AM,70.0,66.9,90,29.95,5.0,Calm,Calm,-,N/A,,Partly Cloudy,0,2013-08-29 10:53:00
7:53 AM,71.1,66.9,87,29.96,5.0,Calm,Calm,-,N/A,,Clear,0,2013-08-29 11:53:00
8:53 AM,75.0,68.0,79,29.96,6.0,WSW,5.8,-,N/A,,Haze,240,2013-08-29 12:53:00
9:53 AM,79.0,70.0,74,29.95,6.0,WSW,6.9,-,N/A,,Haze,250,2013-08-29 13:53:00
10:53 AM,84.0,72.0,67,29.95,7.0,SW,4.6,-,N/A,,Clear,230,2013-08-29 14:53:00
11:53 AM,88.0,71.1,57,29.94,8.0,West,4.6,-,N/A,,Clear,260,2013-08-29 15:53:00
12:53 PM,90.0,71.1,54,29.92,9.0,NNW,6.9,-,N/A,,Clear,330,2013-08-29 16:53:00
1:53 PM,91.9,70.0,48,29.91,10.0,Variable,4.6,-,N/A,,Partly Cloudy,0,2013-08-29 17:53:00
2:53 PM,93.0,69.1,45,29.90,10.0,Variable,3.5,-,N/A,,Mostly Cloudy,0,2013-08-29 18:53:00
3:53 PM,95.0,70.0,44,29.88,10.0,NE,5.8,-,N/A,,Scattered Clouds,50,2013-08-29 19:53:00
4:53 PM,93.9,71.1,47,29.88,10.0,Calm,Calm,-,N/A,,Partly Cloudy,0,2013-08-29 20:53:00
5:53 PM,93.0,70.0,47,29.87,10.0,WNW,3.5,-,N/A,,Scattered Clouds,290,2013-08-29 21:53:00
6:53 PM,91.9,71.1,50,29.87,10.0,Calm,Calm,-,N/A,,Clear,0,2013-08-29 22:53:00
7:53 PM,84.9,75.9,74,29.89,7.0,Calm,Calm,-,N/A,,Clear,0,2013-08-29 23:53:00
8:53 PM,82.9,75.0,77,29.92,7.0,ENE,12.7,19.6,N/A,,Scattered Clouds,70,2013-08-30 00:53:00
9:53 PM,80.1,69.1,69,29.94,10.0,East,4.6,-,N/A,,Scattered Clouds,80,2013-08-30 01:53:00
10:53 PM,78.1,70.0,76,29.94,10.0,NNE,3.5,-,0.00,,Mostly Cloudy,30,2013-08-30 02:53:00
11:53 PM,77.0,70.0,79,29.95,10.0,NE,3.5,-,N/A,,Clear,50,2013-08-30 03:53:00